createdAt,value
2023-08-01T00:00:52.203Z,28.21
2023-08-01T00:01:52.283Z,28.22
2023-08-01T00:02:52.289Z,28.23
2023-08-01T00:03:52.328Z,28.25
2023-08-01T00:04:52.328Z,28.25
2023-08-01T00:05:52.391Z,28.22
2023-08-01T00:06:52.452Z,28.22
2023-08-01T00:07:52.483Z,28.22
2023-08-01T00:08:52.544Z,28.23
2023-08-01T00:09:52.567Z,28.22
2023-08-01T00:10:52.640Z,28.22
2023-08-01T00:11:52.669Z,28.23
2023-08-01T00:12:52.718Z,28.25
2023-08-01T00:13:52.762Z,28.21
2023-08-01T00:14:52.813Z,28.21
2023-08-01T00:16:52.907Z,28.22
2023-08-01T00:17:52.841Z,28.22
2023-08-01T00:18:52.839Z,28.22
2023-08-01T00:19:52.821Z,28.21
2023-08-01T00:20:52.829Z,28.22
2023-08-01T00:21:52.804Z,28.22
2023-08-01T00:22:52.819Z,28.21
2023-08-01T00:23:52.828Z,28.21
2023-08-01T00:24:52.798Z,28.21
2023-08-01T00:25:52.794Z,28.21
2023-08-01T00:26:52.789Z,28.22
2023-08-01T00:27:52.810Z,28.21
2023-08-01T00:28:52.767Z,28.21
2023-08-01T00:29:52.759Z,28.19
2023-08-01T00:30:52.764Z,28.19
2023-08-01T00:31:52.794Z,28.19
2023-08-01T00:32:52.774Z,28.21
2023-08-01T00:33:52.726Z,28.19
2023-08-01T00:34:52.711Z,28.19
2023-08-01T00:35:52.703Z,28.21
2023-08-01T00:36:52.716Z,28.19
2023-08-01T00:37:52.687Z,28.18
2023-08-01T00:38:52.705Z,28.19
2023-08-01T00:39:52.671Z,28.19
2023-08-01T00:40:52.683Z,28.19
2023-08-01T00:41:52.671Z,28.16
2023-08-01T00:42:52.686Z,28.19
2023-08-01T00:43:52.658Z,28.21
2023-08-01T00:44:52.676Z,28.19
2023-08-01T00:45:52.669Z,28.18
2023-08-01T00:46:52.649Z,28.18
2023-08-01T00:47:52.698Z,28.18
2023-08-01T00:48:52.635Z,28.18
2023-08-01T00:49:52.603Z,28.18
2023-08-01T00:50:52.623Z,28.19
2023-08-01T00:51:52.592Z,28.19
2023-08-01T00:52:52.610Z,28.16
2023-08-01T00:53:52.587Z,28.16
2023-08-01T00:54:52.564Z,28.16
2023-08-01T00:55:52.559Z,28.19
2023-08-01T00:56:52.580Z,28.16
2023-08-01T00:57:52.555Z,28.16
2023-08-01T00:58:52.534Z,28.16
2023-08-01T00:59:52.536Z,28.15
2023-08-01T01:00:52.613Z,28.18
2023-08-01T01:01:52.625Z,28.15
2023-08-01T01:02:52.772Z,28.16
2023-08-01T01:03:52.818Z,28.16
2023-08-01T01:04:52.793Z,28.13
2023-08-01T01:05:52.856Z,28.15
2023-08-01T01:06:52.892Z,28.16
2023-08-01T01:07:52.955Z,28.16
2023-08-01T01:08:53.024Z,28.15
2023-08-01T01:09:53.037Z,28.13
2023-08-01T01:10:53.106Z,28.15
2023-08-01T01:11:53.181Z,28.16
2023-08-01T01:12:53.314Z,28.15
2023-08-01T01:13:53.287Z,28.13
2023-08-01T01:14:53.339Z,28.16
2023-08-01T01:15:53.412Z,28.13
2023-08-01T01:16:53.470Z,28.13
2023-08-01T01:17:53.531Z,28.13
2023-08-01T01:18:53.555Z,28.13
2023-08-01T01:19:53.600Z,28.13
2023-08-01T01:20:53.649Z,28.12
2023-08-01T01:21:53.701Z,28.12
2023-08-01T01:22:53.795Z,28.13
2023-08-01T01:23:53.818Z,28.12
2023-08-01T01:24:53.892Z,28.12
2023-08-01T01:25:53.951Z,28.12
2023-08-01T01:26:54.020Z,28.11
2023-08-01T01:27:54.068Z,28.11
2023-08-01T01:28:54.115Z,28.13
2023-08-01T01:29:54.190Z,28.11
2023-08-01T01:30:54.367Z,28.12
2023-08-01T01:31:54.274Z,28.12
2023-08-01T01:32:54.354Z,28.12
2023-08-01T01:33:54.371Z,28.09
2023-08-01T01:34:54.436Z,28.11
2023-08-01T01:35:54.489Z,28.12
2023-08-01T01:36:54.530Z,28.09
2023-08-01T01:37:54.610Z,28.11
2023-08-01T01:38:54.680Z,28.11
2023-08-01T01:39:54.730Z,28.11
2023-08-01T01:40:54.764Z,28.09
2023-08-01T01:41:54.824Z,28.09
2023-08-01T01:42:54.890Z,28.08
2023-08-01T01:43:54.964Z,28.08
2023-08-01T01:44:54.982Z,28.09
2023-08-01T01:45:55.043Z,28.08
2023-08-01T01:46:55.138Z,28.09
2023-08-01T01:47:55.227Z,28.08
2023-08-01T01:48:55.305Z,28.05
2023-08-01T01:49:55.278Z,28.09
2023-08-01T01:50:55.332Z,28.07
2023-08-01T01:51:56.449Z,28.07
2023-08-01T01:52:55.386Z,28.08
2023-08-01T01:53:55.362Z,28.08
2023-08-01T01:54:55.377Z,28.07
2023-08-01T01:55:55.346Z,28.07
2023-08-01T01:56:55.361Z,28.07
2023-08-01T01:57:55.335Z,28.07
2023-08-01T01:58:55.369Z,28.07
2023-08-01T01:59:55.314Z,28.07
2023-08-01T02:00:55.375Z,28.08
2023-08-01T02:01:55.319Z,28.04
2023-08-01T02:02:55.447Z,28.08
2023-08-01T02:03:55.282Z,28.07
2023-08-01T02:04:55.319Z,28.07
2023-08-01T02:05:55.275Z,28.07
2023-08-01T02:06:55.259Z,28.07
2023-08-01T02:07:55.273Z,28.05
2023-08-01T02:08:55.292Z,28.08
2023-08-01T02:09:55.263Z,28.05
2023-08-01T02:10:55.267Z,28.04
2023-08-01T02:11:55.245Z,28.04
2023-08-01T02:12:55.265Z,28.07
2023-08-01T02:13:55.239Z,28.02
2023-08-01T02:14:55.240Z,28.05
2023-08-01T02:15:55.214Z,28.04
2023-08-01T02:16:55.276Z,28.04
2023-08-01T02:17:55.228Z,28.05
2023-08-01T02:18:55.225Z,28.05
2023-08-01T02:19:55.205Z,28.04
2023-08-01T02:20:55.171Z,28.04
2023-08-01T02:21:55.165Z,28.02
2023-08-01T02:22:55.198Z,28.04
2023-08-01T02:23:55.165Z,28.04
2023-08-01T02:24:55.152Z,28.04
2023-08-01T02:25:55.142Z,28.04
2023-08-01T02:26:55.137Z,28.04
2023-08-01T02:27:55.133Z,28.02
2023-08-01T02:28:55.156Z,28.02
2023-08-01T02:29:55.216Z,28.01
2023-08-01T02:30:55.290Z,28.05
2023-08-01T02:31:55.383Z,28.05
2023-08-01T02:32:55.439Z,28.02
2023-08-01T02:33:55.450Z,28.01
2023-08-01T02:34:55.518Z,28.01
2023-08-01T02:35:55.591Z,28.01
2023-08-01T02:36:55.659Z,28.01
2023-08-01T02:37:55.708Z,28.05
2023-08-01T02:38:55.759Z,28.01
2023-08-01T02:39:55.826Z,28.00
2023-08-01T02:40:55.904Z,28.01
2023-08-01T02:41:55.984Z,28.00
2023-08-01T02:42:56.035Z,28.01
2023-08-01T02:43:56.077Z,28.00
2023-08-01T02:44:56.119Z,27.98
2023-08-01T02:45:56.230Z,27.98
2023-08-01T02:46:56.239Z,28.00
2023-08-01T02:47:58.187Z,28.01
2023-08-01T02:48:56.349Z,28.00
2023-08-01T02:49:56.425Z,28.00
2023-08-01T02:50:56.483Z,28.00
2023-08-01T02:51:56.502Z,28.00
2023-08-01T02:52:56.584Z,28.00
2023-08-01T02:53:56.645Z,28.01
2023-08-01T02:54:56.697Z,28.00
2023-08-01T02:55:56.734Z,28.00
2023-08-01T02:56:56.815Z,27.98
2023-08-01T02:57:56.854Z,28.00
2023-08-01T02:58:56.934Z,27.97
2023-08-01T02:59:56.960Z,27.97
2023-08-01T03:00:57.019Z,27.98
2023-08-01T03:01:57.150Z,27.95
2023-08-01T03:02:57.181Z,27.98
2023-08-01T03:03:57.232Z,27.95
2023-08-01T03:04:57.250Z,27.95
2023-08-01T03:05:57.299Z,27.97
2023-08-01T03:06:57.354Z,28.00
2023-08-01T03:07:57.418Z,27.95
2023-08-01T03:08:57.479Z,27.98
2023-08-01T03:09:57.490Z,27.97
2023-08-01T03:10:57.560Z,27.97
2023-08-01T03:11:57.614Z,27.97
2023-08-01T03:12:57.650Z,27.97
2023-08-01T03:13:57.698Z,27.95
2023-08-01T03:14:57.756Z,27.97
2023-08-01T03:15:57.879Z,27.95
2023-08-01T03:16:57.846Z,27.94
2023-08-01T03:17:58.116Z,27.95
2023-08-01T03:18:57.986Z,27.94
2023-08-01T03:19:58.030Z,27.97
2023-08-01T03:20:58.080Z,27.94
2023-08-01T03:21:58.152Z,27.95
2023-08-01T03:22:58.190Z,27.97
2023-08-01T03:23:58.268Z,27.92
2023-08-01T03:24:58.343Z,27.97
2023-08-01T03:25:58.318Z,27.95
2023-08-01T03:26:58.369Z,27.92
2023-08-01T03:27:58.439Z,27.92
2023-08-01T03:28:58.506Z,27.94
2023-08-01T03:29:58.545Z,27.92
2023-08-01T03:30:58.600Z,27.94
2023-08-01T03:31:58.661Z,27.94
2023-08-01T03:32:58.684Z,27.94
2023-08-01T03:33:58.710Z,27.94
2023-08-01T03:34:58.764Z,27.92
2023-08-01T03:35:58.910Z,27.92
2023-08-01T03:36:58.865Z,27.95
2023-08-01T03:37:58.906Z,27.92
2023-08-01T03:38:59.013Z,27.92
2023-08-01T03:39:58.998Z,27.94
2023-08-01T03:40:59.046Z,27.92
2023-08-01T03:41:59.114Z,27.90
2023-08-01T03:42:59.110Z,27.91
2023-08-01T03:43:59.183Z,27.92
2023-08-01T03:44:59.193Z,27.91
2023-08-01T03:45:59.218Z,27.94
2023-08-01T03:46:59.256Z,27.94
2023-08-01T03:47:59.278Z,27.91
2023-08-01T03:48:59.291Z,27.92
2023-08-01T03:49:59.366Z,27.90
2023-08-01T03:50:59.409Z,27.91
2023-08-01T03:52:00.617Z,27.91
2023-08-01T03:52:59.464Z,27.91
2023-08-01T03:54:11.441Z,27.90
2023-08-01T03:55:00.515Z,27.90
2023-08-01T03:55:59.485Z,27.90
2023-08-01T03:56:59.472Z,27.90
2023-08-01T03:57:59.443Z,27.90
2023-08-01T03:58:59.455Z,27.91
2023-08-01T03:59:59.436Z,27.90
2023-08-01T04:00:59.468Z,27.90
2023-08-01T04:01:59.429Z,27.91
2023-08-01T04:02:59.444Z,27.90
2023-08-01T04:03:59.464Z,27.90
2023-08-01T04:04:59.396Z,27.91
2023-08-01T04:05:59.400Z,27.88
2023-08-01T04:06:59.379Z,27.90
2023-08-01T04:07:59.377Z,27.90
2023-08-01T04:08:59.376Z,27.88
2023-08-01T04:09:59.379Z,27.88
2023-08-01T04:10:59.409Z,27.87
2023-08-01T04:11:59.438Z,27.88
2023-08-01T04:12:59.419Z,27.87
2023-08-01T04:13:59.469Z,27.87
2023-08-01T04:14:59.475Z,27.88
2023-08-01T04:15:59.514Z,27.88
2023-08-01T04:16:59.523Z,27.87
2023-08-01T04:17:59.537Z,27.88
2023-08-01T04:18:59.557Z,27.85
2023-08-01T04:19:59.557Z,27.90
2023-08-01T04:20:59.556Z,27.88
2023-08-01T04:21:59.569Z,27.87
2023-08-01T04:22:59.646Z,27.90
2023-08-01T04:23:59.610Z,27.85
2023-08-01T04:24:59.618Z,27.85
2023-08-01T04:25:59.630Z,27.85
2023-08-01T04:26:59.669Z,27.85
2023-08-01T04:27:59.713Z,27.84
2023-08-01T04:28:59.672Z,27.85
2023-08-01T04:29:59.730Z,27.87
2023-08-01T04:30:59.750Z,27.85
2023-08-01T04:31:59.743Z,27.88
2023-08-01T04:32:59.790Z,27.85
2023-08-01T04:33:59.756Z,27.87
2023-08-01T04:34:59.809Z,27.87
2023-08-01T04:35:59.765Z,27.88
2023-08-01T04:36:59.790Z,27.90
2023-08-01T04:37:59.775Z,27.87
2023-08-01T04:38:59.793Z,27.85
2023-08-01T04:39:59.802Z,27.85
2023-08-01T04:40:59.773Z,27.84
2023-08-01T04:41:59.783Z,27.87
2023-08-01T04:42:59.802Z,27.84
2023-08-01T04:43:59.825Z,27.84
2023-08-01T04:44:59.834Z,27.85
2023-08-01T04:45:59.860Z,27.85
2023-08-01T04:46:59.892Z,27.87
2023-08-01T04:47:59.958Z,27.83
2023-08-01T04:48:59.899Z,27.85
2023-08-01T04:49:59.896Z,27.81
2023-08-01T04:50:59.964Z,27.84
2023-08-01T04:51:59.922Z,27.83
2023-08-01T04:52:59.932Z,27.83
2023-08-01T04:53:59.920Z,27.85
2023-08-01T04:54:59.922Z,27.84
2023-08-01T04:55:59.944Z,27.84
2023-08-01T04:56:59.932Z,27.83
2023-08-01T04:57:59.952Z,27.84
2023-08-01T04:59:00.016Z,27.84
2023-08-01T04:59:59.965Z,27.81
2023-08-01T05:01:00.023Z,27.83
2023-08-01T05:01:59.999Z,27.81
2023-08-01T05:03:00.096Z,27.83
2023-08-01T05:04:00.071Z,27.81
2023-08-01T05:05:00.002Z,27.83
2023-08-01T05:06:00.047Z,27.81
2023-08-01T05:07:00.049Z,27.83
2023-08-01T05:08:00.075Z,27.84
2023-08-01T05:09:00.037Z,27.80
2023-08-01T05:10:00.060Z,27.83
2023-08-01T05:11:00.091Z,27.84
2023-08-01T05:12:00.059Z,27.83
2023-08-01T05:13:00.064Z,27.85
2023-08-01T05:14:00.029Z,27.81
2023-08-01T05:15:00.056Z,27.80
2023-08-01T05:16:00.053Z,27.84
2023-08-01T05:17:00.077Z,27.81
2023-08-01T05:18:00.175Z,27.83
2023-08-01T05:19:00.056Z,27.84
2023-08-01T05:20:00.038Z,27.83
2023-08-01T05:21:00.068Z,27.81
2023-08-01T05:22:00.075Z,27.81
2023-08-01T05:23:00.051Z,27.81
2023-08-01T05:24:00.053Z,27.83
2023-08-01T05:25:00.052Z,27.83
2023-08-01T05:26:00.047Z,27.81
2023-08-01T05:27:00.071Z,27.81
2023-08-01T05:28:00.078Z,27.80
2023-08-01T05:29:00.050Z,27.83
2023-08-01T05:30:00.088Z,27.81
2023-08-01T05:31:00.145Z,27.81
2023-08-01T05:32:00.052Z,27.83
2023-08-01T05:33:00.078Z,27.80
2023-08-01T05:34:00.045Z,27.81
2023-08-01T05:35:00.067Z,27.78
2023-08-01T05:36:00.089Z,27.80
2023-08-01T05:37:00.088Z,27.80
2023-08-01T05:38:00.074Z,27.81
2023-08-01T05:39:00.103Z,27.80
2023-08-01T05:40:00.105Z,27.81
2023-08-01T05:41:00.131Z,27.81
2023-08-01T05:42:00.096Z,27.81
2023-08-01T05:43:00.163Z,27.81
2023-08-01T05:44:00.158Z,27.81
2023-08-01T05:45:00.189Z,27.78
2023-08-01T05:46:00.193Z,27.78
2023-08-01T05:47:00.174Z,27.80
2023-08-01T05:48:00.321Z,27.83
2023-08-01T05:49:00.225Z,27.80
2023-08-01T05:50:00.274Z,27.80
2023-08-01T05:51:00.356Z,27.80
2023-08-01T05:52:00.270Z,27.83
2023-08-01T05:53:00.245Z,27.81
2023-08-01T05:54:00.221Z,27.78
2023-08-01T05:55:00.228Z,27.81
2023-08-01T05:56:00.278Z,27.80
2023-08-01T05:57:00.248Z,27.81
2023-08-01T05:58:00.257Z,27.78
2023-08-01T05:59:00.248Z,27.80
2023-08-01T06:00:00.265Z,27.80
2023-08-01T06:01:00.282Z,27.80
2023-08-01T06:02:00.421Z,27.80
2023-08-01T06:03:00.308Z,27.80
2023-08-01T06:04:00.340Z,27.77
2023-08-01T06:05:00.283Z,27.78
2023-08-01T06:06:00.283Z,27.80
2023-08-01T06:07:00.255Z,27.80
2023-08-01T06:08:00.276Z,27.78
2023-08-01T06:09:00.280Z,27.81
2023-08-01T06:10:00.304Z,27.83
2023-08-01T06:11:00.271Z,27.80
2023-08-01T06:12:00.292Z,27.78
2023-08-01T06:13:00.270Z,27.78
2023-08-01T06:14:00.278Z,27.78
2023-08-01T06:15:00.250Z,27.81
2023-08-01T06:16:00.274Z,27.78
2023-08-01T06:17:00.264Z,27.77
2023-08-01T06:18:00.270Z,27.78
2023-08-01T06:19:00.264Z,27.77
2023-08-01T06:20:00.271Z,27.77
2023-08-01T06:21:00.277Z,27.78
2023-08-01T06:22:00.275Z,27.80
2023-08-01T06:23:00.288Z,27.77
2023-08-01T06:24:00.281Z,27.80
2023-08-01T06:25:00.289Z,27.80
2023-08-01T06:26:00.280Z,27.78
2023-08-01T06:27:00.303Z,27.78
2023-08-01T06:28:00.321Z,27.78
2023-08-01T06:29:00.303Z,27.78
2023-08-01T06:30:00.317Z,27.78
2023-08-01T06:31:00.304Z,27.75
2023-08-01T06:32:00.345Z,27.77
2023-08-01T06:33:00.398Z,27.77
2023-08-01T06:34:00.310Z,27.77
2023-08-01T06:35:00.317Z,27.77
2023-08-01T06:36:00.294Z,27.77
2023-08-01T06:37:00.313Z,27.75
2023-08-01T06:38:00.309Z,27.77
2023-08-01T06:39:00.290Z,27.74
2023-08-01T06:40:00.281Z,27.74
2023-08-01T06:41:00.269Z,27.77
2023-08-01T06:42:00.297Z,27.77
2023-08-01T06:43:00.307Z,27.74
2023-08-01T06:44:00.328Z,27.75
2023-08-01T06:45:00.329Z,27.75
2023-08-01T06:46:00.364Z,27.77
2023-08-01T06:47:00.338Z,27.75
2023-08-01T06:48:00.381Z,27.78
2023-08-01T06:49:00.365Z,27.77
2023-08-01T06:50:00.355Z,27.77
2023-08-01T06:51:00.346Z,27.72
2023-08-01T06:52:00.351Z,27.75
2023-08-01T06:53:00.336Z,27.75
2023-08-01T06:54:00.368Z,27.74
2023-08-01T06:55:00.361Z,27.78
2023-08-01T06:56:00.322Z,27.74
2023-08-01T06:57:00.373Z,27.75
2023-08-01T06:58:00.329Z,27.77
2023-08-01T06:59:00.342Z,27.74
2023-08-01T07:00:00.369Z,27.75
2023-08-01T07:01:00.346Z,27.77
2023-08-01T07:02:00.496Z,27.72
2023-08-01T07:03:00.491Z,27.75
2023-08-01T07:04:00.418Z,27.75
2023-08-01T07:05:00.381Z,27.75
2023-08-01T07:06:00.450Z,27.75
2023-08-01T07:07:00.395Z,27.77
2023-08-01T07:08:00.413Z,27.74
2023-08-01T07:09:00.365Z,27.75
2023-08-01T07:10:00.376Z,27.75
2023-08-01T07:11:00.383Z,27.77
2023-08-01T07:12:00.398Z,27.74
2023-08-01T07:13:00.374Z,27.75
2023-08-01T07:14:00.356Z,27.75
2023-08-01T07:15:02.307Z,27.77
2023-08-01T07:16:00.404Z,27.75
2023-08-01T07:17:00.374Z,27.72
2023-08-01T07:18:00.428Z,27.75
2023-08-01T07:19:00.360Z,27.77
2023-08-01T07:20:00.350Z,27.74
2023-08-01T07:21:00.350Z,27.78
2023-08-01T07:22:00.396Z,27.75
2023-08-01T07:23:00.392Z,27.75
2023-08-01T07:24:00.381Z,27.77
2023-08-01T07:25:00.369Z,27.75
2023-08-01T07:26:00.383Z,27.77
2023-08-01T07:27:00.367Z,27.77
2023-08-01T07:28:00.370Z,27.78
2023-08-01T07:29:00.349Z,27.78
2023-08-01T07:30:00.354Z,27.80
2023-08-01T07:31:00.337Z,27.80
2023-08-01T07:32:00.498Z,27.78
2023-08-01T07:33:00.388Z,27.80
2023-08-01T07:34:00.364Z,27.80
2023-08-01T07:35:00.422Z,27.77
2023-08-01T07:36:00.348Z,27.78
2023-08-01T07:37:00.428Z,27.78
2023-08-01T07:38:00.367Z,27.80
2023-08-01T07:39:00.371Z,27.80
2023-08-01T07:40:00.409Z,27.83
2023-08-01T07:41:00.369Z,27.81
2023-08-01T07:42:00.368Z,27.81
2023-08-01T07:43:00.394Z,27.81
2023-08-01T07:44:00.375Z,27.83
2023-08-01T07:45:00.363Z,27.83
2023-08-01T07:46:00.477Z,27.81
2023-08-01T07:47:00.391Z,27.83
2023-08-01T07:48:00.421Z,27.83
2023-08-01T07:49:00.372Z,27.84
2023-08-01T07:50:00.415Z,27.83
2023-08-01T07:51:00.421Z,27.84
2023-08-01T07:52:00.419Z,27.87
2023-08-01T07:53:00.448Z,27.85
2023-08-01T07:54:00.469Z,27.88
2023-08-01T07:55:00.553Z,27.87
2023-08-01T07:56:00.569Z,27.88
2023-08-01T07:57:00.567Z,27.90
2023-08-01T07:58:00.614Z,27.90
2023-08-01T07:59:00.608Z,27.91
2023-08-01T08:00:00.687Z,27.92
2023-08-01T08:01:00.742Z,27.94
2023-08-01T08:02:00.754Z,27.92
2023-08-01T08:03:00.878Z,27.94
2023-08-01T08:04:03.433Z,27.95
2023-08-01T08:05:00.829Z,27.95
2023-08-01T08:06:00.855Z,27.97
2023-08-01T08:07:00.833Z,27.98
2023-08-01T08:08:00.836Z,27.98
2023-08-01T08:09:00.815Z,27.98
2023-08-01T08:10:00.817Z,28.00
2023-08-01T08:11:00.827Z,28.00
2023-08-01T08:12:00.796Z,28.01
2023-08-01T08:13:00.778Z,28.01
2023-08-01T08:14:00.788Z,28.01
2023-08-01T08:15:00.794Z,28.02
2023-08-01T08:16:00.916Z,28.01
2023-08-01T08:17:00.798Z,28.01
2023-08-01T08:18:00.780Z,28.01
2023-08-01T08:19:00.768Z,28.02
2023-08-01T08:20:00.747Z,28.00
2023-08-01T08:21:00.736Z,28.00
2023-08-01T08:22:00.760Z,27.98
2023-08-01T08:23:00.715Z,27.98
2023-08-01T08:24:00.740Z,27.95
2023-08-01T08:25:00.720Z,28.00
2023-08-01T08:26:00.709Z,27.97
2023-08-01T08:27:00.707Z,27.94
2023-08-01T08:28:00.702Z,27.94
2023-08-01T08:29:00.785Z,27.95
2023-08-01T08:30:00.667Z,27.95
2023-08-01T08:31:00.708Z,27.94
2023-08-01T08:32:00.681Z,27.94
2023-08-01T08:33:00.693Z,27.95
2023-08-01T08:34:00.670Z,27.92
2023-08-01T08:35:00.692Z,27.94
2023-08-01T08:36:00.649Z,27.92
2023-08-01T08:37:00.623Z,27.94
2023-08-01T08:38:00.629Z,27.94
2023-08-01T08:39:00.611Z,27.92
2023-08-01T08:40:00.619Z,27.95
2023-08-01T08:41:00.617Z,27.92
2023-08-01T08:42:00.596Z,27.92
2023-08-01T08:43:00.574Z,27.92
2023-08-01T08:44:00.615Z,27.94
2023-08-01T08:45:00.574Z,27.94
2023-08-01T08:46:00.563Z,27.94
2023-08-01T08:47:00.617Z,27.92
2023-08-01T08:48:00.592Z,27.94
2023-08-01T08:49:00.612Z,27.94
2023-08-01T08:50:00.687Z,27.94
2023-08-01T08:51:00.742Z,27.94
2023-08-01T08:52:00.790Z,27.95
2023-08-01T08:53:00.827Z,27.97
2023-08-01T08:54:02.813Z,27.95
2023-08-01T08:55:00.921Z,27.97
2023-08-01T08:56:00.965Z,27.97
2023-08-01T08:57:01.035Z,27.97
2023-08-01T08:58:01.080Z,27.98
2023-08-01T08:59:01.149Z,28.00
2023-08-01T09:00:01.206Z,28.01
2023-08-01T09:01:01.272Z,28.01
2023-08-01T09:02:01.298Z,28.00
2023-08-01T09:03:01.404Z,27.98
2023-08-01T09:04:01.489Z,27.98
2023-08-01T09:05:01.489Z,28.02
2023-08-01T09:06:01.577Z,28.02
2023-08-01T09:07:01.616Z,28.02
2023-08-01T09:08:01.685Z,28.01
2023-08-01T09:09:01.733Z,28.04
2023-08-01T09:10:01.846Z,28.05
2023-08-01T09:11:01.840Z,28.07
2023-08-01T09:12:01.915Z,28.09
2023-08-01T09:13:01.952Z,28.11
2023-08-01T09:14:02.016Z,28.11
2023-08-01T09:15:02.076Z,28.09
2023-08-01T09:16:02.144Z,28.09
2023-08-01T09:17:02.271Z,28.08
2023-08-01T09:18:02.277Z,28.11
2023-08-01T09:19:02.289Z,28.12
2023-08-01T09:20:02.396Z,28.11
2023-08-01T09:21:02.411Z,28.11
2023-08-01T09:22:02.457Z,28.13
2023-08-01T09:23:02.552Z,28.15
2023-08-01T09:24:02.574Z,28.19
2023-08-01T09:25:02.640Z,28.18
2023-08-01T09:26:02.660Z,28.18
2023-08-01T09:27:02.700Z,28.16
2023-08-01T09:28:02.833Z,28.19
2023-08-01T09:29:02.816Z,28.19
2023-08-01T09:30:02.906Z,28.19
2023-08-01T09:31:02.991Z,28.19
2023-08-01T09:32:02.964Z,28.19
2023-08-01T09:33:03.045Z,28.18
2023-08-01T09:34:03.119Z,28.18
2023-08-01T09:35:03.100Z,28.15
2023-08-01T09:36:03.163Z,28.15
2023-08-01T09:37:03.214Z,28.13
2023-08-01T09:38:03.339Z,28.15
2023-08-01T09:39:03.315Z,28.15
2023-08-01T09:40:03.392Z,28.16
2023-08-01T09:41:03.408Z,28.13
2023-08-01T09:42:03.496Z,28.13
2023-08-01T09:43:03.528Z,28.15
2023-08-01T09:44:03.586Z,28.15
2023-08-01T09:45:03.616Z,28.15
2023-08-01T09:46:03.700Z,28.15
2023-08-01T09:47:03.717Z,28.15
2023-08-01T09:48:03.879Z,28.13
2023-08-01T09:49:03.840Z,28.15
2023-08-01T09:50:03.888Z,28.16
2023-08-01T09:51:03.952Z,28.18
2023-08-01T09:52:04.009Z,28.16
2023-08-01T09:53:04.075Z,28.16
2023-08-01T09:54:04.131Z,28.16
2023-08-01T09:55:04.186Z,28.18
2023-08-01T09:56:04.271Z,28.19
2023-08-01T09:57:04.266Z,28.19
2023-08-01T09:58:04.409Z,28.19
2023-08-01T09:59:04.380Z,28.21
2023-08-01T10:00:04.418Z,28.21
2023-08-01T10:01:04.467Z,28.21
2023-08-01T10:02:04.550Z,28.21
2023-08-01T10:03:04.613Z,28.21
2023-08-01T10:04:04.675Z,28.22
2023-08-01T10:05:04.670Z,28.22
2023-08-01T10:06:04.715Z,28.23
2023-08-01T10:07:04.751Z,28.25
2023-08-01T10:08:04.805Z,28.23
2023-08-01T10:09:04.928Z,28.23
2023-08-01T10:10:04.885Z,28.25
2023-08-01T10:11:05.559Z,28.25
2023-08-01T10:12:05.004Z,28.23
2023-08-01T10:13:05.059Z,28.23
2023-08-01T10:14:05.091Z,28.25
2023-08-01T10:15:05.174Z,28.22
2023-08-01T10:16:05.220Z,28.21
2023-08-01T10:17:05.252Z,28.18
2023-08-01T10:18:05.349Z,28.19
2023-08-01T10:19:05.339Z,28.16
2023-08-01T10:20:05.404Z,28.18
2023-08-01T10:21:05.480Z,28.16
2023-08-01T10:22:05.522Z,28.13
2023-08-01T10:23:05.570Z,28.15
2023-08-01T10:24:05.619Z,28.15
2023-08-01T10:25:05.711Z,28.13
2023-08-01T10:26:05.761Z,28.12
2023-08-01T10:27:05.793Z,28.11
2023-08-01T10:28:05.925Z,28.11
2023-08-01T10:29:05.923Z,28.09
2023-08-01T10:30:06.090Z,28.11
2023-08-01T10:31:06.029Z,28.08
2023-08-01T10:32:06.144Z,28.08
2023-08-01T10:33:06.213Z,28.08
2023-08-01T10:34:06.186Z,28.08
2023-08-01T10:35:06.248Z,28.11
2023-08-01T10:36:06.327Z,28.09
2023-08-01T10:37:06.356Z,28.09
2023-08-01T10:38:06.421Z,28.05
2023-08-01T10:39:06.493Z,28.05
2023-08-01T10:40:06.531Z,28.08
2023-08-01T10:41:06.602Z,28.02
2023-08-01T10:42:06.816Z,28.08
2023-08-01T10:43:06.706Z,28.08
2023-08-01T10:44:06.757Z,28.09
2023-08-01T10:45:06.841Z,28.05
2023-08-01T10:46:07.028Z,28.07
2023-08-01T10:47:06.993Z,28.07
2023-08-01T10:48:07.031Z,28.08
2023-08-01T10:49:07.056Z,28.11
2023-08-01T10:50:07.102Z,28.08
2023-08-01T10:51:07.161Z,28.08
2023-08-01T10:52:07.239Z,28.11
2023-08-01T10:53:07.271Z,28.09
2023-08-01T10:54:07.335Z,28.12
2023-08-01T10:55:07.407Z,28.13
2023-08-01T10:56:07.443Z,28.16
2023-08-01T10:57:07.494Z,28.15
2023-08-01T10:58:07.557Z,28.18
2023-08-01T10:59:07.575Z,28.22
2023-08-01T11:00:07.627Z,28.21
2023-08-01T11:01:07.703Z,28.22
2023-08-01T11:02:07.718Z,28.23
2023-08-01T11:03:07.951Z,28.23
2023-08-01T11:04:07.805Z,28.25
2023-08-01T11:05:07.848Z,28.28
2023-08-01T11:06:07.927Z,28.28
2023-08-01T11:07:07.947Z,28.29
2023-08-01T11:08:08.026Z,28.28
2023-08-01T11:09:08.046Z,28.28
2023-08-01T11:10:08.126Z,28.28
2023-08-01T11:11:08.141Z,28.28
2023-08-01T11:12:08.208Z,28.28
2023-08-01T11:13:08.244Z,28.29
2023-08-01T11:14:08.297Z,28.32
2023-08-01T11:15:08.305Z,28.31
2023-08-01T11:16:08.468Z,28.29
2023-08-01T11:17:08.410Z,28.31
2023-08-01T11:18:08.463Z,28.32
2023-08-01T11:19:08.465Z,28.32
2023-08-01T11:20:08.567Z,28.34
2023-08-01T11:21:08.580Z,28.32
2023-08-01T11:22:08.590Z,28.32
2023-08-01T11:23:08.670Z,28.34
2023-08-01T11:24:08.685Z,28.35
2023-08-01T11:25:08.731Z,28.36
2023-08-01T11:26:08.774Z,28.35
2023-08-01T11:27:08.810Z,28.36
2023-08-01T11:28:09.009Z,28.38
2023-08-01T11:29:08.893Z,28.36
2023-08-01T11:30:09.057Z,28.38
2023-08-01T11:31:09.048Z,28.38
2023-08-01T11:32:09.016Z,28.41
2023-08-01T11:33:09.060Z,28.39
2023-08-01T11:34:09.108Z,28.41
2023-08-01T11:35:09.119Z,28.45
2023-08-01T11:36:09.179Z,28.46
2023-08-01T11:37:09.187Z,28.46
2023-08-01T11:38:09.199Z,28.52
2023-08-01T11:39:09.229Z,28.55
2023-08-01T11:40:09.231Z,28.62
2023-08-01T11:41:09.264Z,28.63
2023-08-01T11:42:09.286Z,28.64
2023-08-01T11:43:09.311Z,28.67
2023-08-01T11:44:09.313Z,28.73
2023-08-01T11:45:09.346Z,28.76
2023-08-01T11:46:09.396Z,28.79
2023-08-01T11:47:09.358Z,28.77
2023-08-01T11:48:09.391Z,28.79
2023-08-01T11:49:09.418Z,28.79
2023-08-01T11:50:09.410Z,28.82
2023-08-01T11:51:09.456Z,28.82
2023-08-01T11:52:09.462Z,28.83
2023-08-01T11:53:09.455Z,28.79
2023-08-01T11:54:09.479Z,28.70
2023-08-01T11:55:09.497Z,28.64
2023-08-01T11:56:09.516Z,28.62
2023-08-01T11:57:10.586Z,28.56
2023-08-01T11:58:09.578Z,28.53
2023-08-01T11:59:09.595Z,28.51
2023-08-01T12:00:09.637Z,28.52
2023-08-01T12:01:09.699Z,28.46
2023-08-01T12:02:09.709Z,28.45
2023-08-01T12:03:09.782Z,28.42
2023-08-01T12:04:09.859Z,28.42
2023-08-01T12:05:09.854Z,28.39
2023-08-01T12:06:09.831Z,28.38
2023-08-01T12:07:09.898Z,28.36
2023-08-01T12:08:09.920Z,28.36
2023-08-01T12:09:09.948Z,28.36
2023-08-01T12:10:10.035Z,28.35
2023-08-01T12:11:10.050Z,28.36
2023-08-01T12:12:10.100Z,28.35
2023-08-01T12:13:10.160Z,28.34
2023-08-01T12:14:10.151Z,28.34
2023-08-01T12:15:10.272Z,28.32
2023-08-01T12:16:10.247Z,28.32
2023-08-01T12:17:10.248Z,28.32
2023-08-01T12:18:10.299Z,28.34
2023-08-01T12:19:10.329Z,28.28
2023-08-01T12:20:10.367Z,28.29
2023-08-01T12:21:10.428Z,28.29
2023-08-01T12:22:10.494Z,28.28
2023-08-01T12:23:10.502Z,28.31
2023-08-01T12:24:10.536Z,28.28
2023-08-01T12:25:10.570Z,28.25
2023-08-01T12:26:10.615Z,28.25
2023-08-01T12:27:10.667Z,28.32
2023-08-01T12:28:10.703Z,28.34
2023-08-01T12:29:10.721Z,28.34
2023-08-01T12:30:10.759Z,28.36
2023-08-01T12:31:10.833Z,28.34
2023-08-01T12:32:10.862Z,28.34
2023-08-01T12:33:10.894Z,28.35
2023-08-01T12:34:10.925Z,28.36
2023-08-01T12:35:10.969Z,28.36
2023-08-01T12:36:11.033Z,28.36
2023-08-01T12:37:11.052Z,28.39
2023-08-01T12:38:11.046Z,28.38
2023-08-01T12:39:11.109Z,28.38
2023-08-01T12:40:11.150Z,28.35
2023-08-01T12:41:11.204Z,28.38
2023-08-01T12:42:11.194Z,28.39
2023-08-01T12:43:11.237Z,28.38
2023-08-01T12:44:11.255Z,28.36
2023-08-01T12:45:11.278Z,28.39
2023-08-01T12:46:11.366Z,28.34
2023-08-01T12:47:11.423Z,28.34
2023-08-01T12:48:11.418Z,28.32
2023-08-01T12:49:11.430Z,28.35
2023-08-01T12:50:11.477Z,28.32
2023-08-01T12:51:12.128Z,28.34
2023-08-01T12:52:11.569Z,28.32
2023-08-01T12:53:11.639Z,28.32
2023-08-01T12:54:11.653Z,28.34